sensor_id;sensor_type;location;lat;lon;timestamp;P1;durP1;ratioP1;P2;durP2;ratioP2
7017;SDS011;3549;42.162;24.726;2023-12-14T00:00:17;183.37;;;69.30;;
7017;SDS011;3549;42.162;24.726;2023-12-14T00:02:43;184.30;;;70.10;;
7017;SDS011;3549;42.162;24.726;2023-12-14T00:05:08;180.50;;;69.37;;
7017;SDS011;3549;42.162;24.726;2023-12-14T00:07:34;208.07;;;75.17;;
7017;SDS011;3549;42.162;24.726;2023-12-14T00:09:59;200.73;;;73.70;;
7017;SDS011;3549;42.162;24.726;2023-12-14T00:12:25;230.10;;;86.53;;
7017;SDS011;3549;42.162;24.726;2023-12-14T00:14:50;196.20;;;76.73;;
7017;SDS011;3549;42.162;24.726;2023-12-14T00:17:15;178.73;;;70.40;;
7017;SDS011;3549;42.162;24.726;2023-12-14T00:19:41;182.10;;;71.63;;
7017;SDS011;3549;42.162;24.726;2023-12-14T00:22:07;185.60;;;72.27;;
7017;SDS011;3549;42.162;24.726;2023-12-14T00:24:33;167.37;;;67.90;;
7017;SDS011;3549;42.162;24.726;2023-12-14T00:26:58;182.50;;;69.10;;
7017;SDS011;3549;42.162;24.726;2023-12-14T00:29:23;168.03;;;65.50;;
7017;SDS011;3549;42.162;24.726;2023-12-14T00:31:49;174.40;;;67.37;;
7017;SDS011;3549;42.162;24.726;2023-12-14T00:34:14;176.63;;;66.47;;
7017;SDS011;3549;42.162;24.726;2023-12-14T00:36:40;181.93;;;72.63;;
7017;SDS011;3549;42.162;24.726;2023-12-14T00:39:05;169.17;;;67.50;;
7017;SDS011;3549;42.162;24.726;2023-12-14T00:41:31;193.57;;;74.03;;
7017;SDS011;3549;42.162;24.726;2023-12-14T00:43:56;177.27;;;70.73;;
7017;SDS011;3549;42.162;24.726;2023-12-14T00:46:21;182.83;;;72.70;;
7017;SDS011;3549;42.162;24.726;2023-12-14T00:48:47;170.73;;;67.47;;
7017;SDS011;3549;42.162;24.726;2023-12-14T00:51:12;173.03;;;70.40;;
7017;SDS011;3549;42.162;24.726;2023-12-14T00:53:38;173.47;;;66.80;;
7017;SDS011;3549;42.162;24.726;2023-12-14T00:56:03;166.90;;;64.13;;
7017;SDS011;3549;42.162;24.726;2023-12-14T00:58:28;168.97;;;64.90;;
7017;SDS011;3549;42.162;24.726;2023-12-14T01:00:54;149.30;;;60.93;;
7017;SDS011;3549;42.162;24.726;2023-12-14T01:03:20;145.07;;;60.60;;
7017;SDS011;3549;42.162;24.726;2023-12-14T01:05:46;150.27;;;58.83;;
7017;SDS011;3549;42.162;24.726;2023-12-14T01:08:11;151.60;;;59.67;;
7017;SDS011;3549;42.162;24.726;2023-12-14T01:10:37;148.50;;;58.30;;
7017;SDS011;3549;42.162;24.726;2023-12-14T01:13:02;151.87;;;59.87;;
7017;SDS011;3549;42.162;24.726;2023-12-14T01:15:27;145.27;;;57.83;;
7017;SDS011;3549;42.162;24.726;2023-12-14T01:17:54;140.33;;;57.43;;
7017;SDS011;3549;42.162;24.726;2023-12-14T01:20:19;153.80;;;58.10;;
7017;SDS011;3549;42.162;24.726;2023-12-14T01:22:44;166.23;;;56.23;;
7017;SDS011;3549;42.162;24.726;2023-12-14T01:25:10;157.97;;;57.97;;
7017;SDS011;3549;42.162;24.726;2023-12-14T01:27:35;165.23;;;58.63;;
7017;SDS011;3549;42.162;24.726;2023-12-14T01:30:00;154.63;;;58.17;;
7017;SDS011;3549;42.162;24.726;2023-12-14T01:32:26;148.60;;;59.20;;
7017;SDS011;3549;42.162;24.726;2023-12-14T01:34:51;145.90;;;60.17;;
7017;SDS011;3549;42.162;24.726;2023-12-14T01:37:17;150.67;;;60.40;;
7017;SDS011;3549;42.162;24.726;2023-12-14T01:39:42;147.67;;;58.50;;
7017;SDS011;3549;42.162;24.726;2023-12-14T01:42:07;144.67;;;59.20;;
7017;SDS011;3549;42.162;24.726;2023-12-14T01:44:33;166.37;;;60.73;;
7017;SDS011;3549;42.162;24.726;2023-12-14T01:46:58;174.40;;;62.07;;
7017;SDS011;3549;42.162;24.726;2023-12-14T01:49:24;179.13;;;63.53;;
7017;SDS011;3549;42.162;24.726;2023-12-14T01:51:49;191.37;;;64.83;;
7017;SDS011;3549;42.162;24.726;2023-12-14T01:54:14;190.00;;;67.07;;
7017;SDS011;3549;42.162;24.726;2023-12-14T01:56:40;176.33;;;63.10;;
7017;SDS011;3549;42.162;24.726;2023-12-14T01:59:05;177.67;;;60.87;;
7017;SDS011;3549;42.162;24.726;2023-12-14T02:04:10;138.07;;;55.47;;
7017;SDS011;3549;42.162;24.726;2023-12-14T02:06:37;141.83;;;56.13;;
7017;SDS011;3549;42.162;24.726;2023-12-14T02:09:03;142.07;;;56.57;;
7017;SDS011;3549;42.162;24.726;2023-12-14T02:11:29;140.87;;;55.70;;
7017;SDS011;3549;42.162;24.726;2023-12-14T02:13:54;138.03;;;57.00;;
7017;SDS011;3549;42.162;24.726;2023-12-14T02:16:20;149.00;;;59.23;;
7017;SDS011;3549;42.162;24.726;2023-12-14T02:18:45;142.50;;;53.13;;
7017;SDS011;3549;42.162;24.726;2023-12-14T02:21:11;138.43;;;56.53;;
7017;SDS011;3549;42.162;24.726;2023-12-14T02:23:45;146.47;;;58.77;;
7017;SDS011;3549;42.162;24.726;2023-12-14T02:26:11;136.00;;;56.40;;
7017;SDS011;3549;42.162;24.726;2023-12-14T02:28:39;132.77;;;52.70;;
7017;SDS011;3549;42.162;24.726;2023-12-14T02:31:06;140.37;;;55.13;;
7017;SDS011;3549;42.162;24.726;2023-12-14T02:33:31;138.77;;;53.63;;
7017;SDS011;3549;42.162;24.726;2023-12-14T02:35:57;138.80;;;57.43;;
7017;SDS011;3549;42.162;24.726;2023-12-14T02:38:22;147.10;;;57.43;;
7017;SDS011;3549;42.162;24.726;2023-12-14T02:40:48;155.33;;;61.60;;
7017;SDS011;3549;42.162;24.726;2023-12-14T02:43:16;159.07;;;58.70;;
7017;SDS011;3549;42.162;24.726;2023-12-14T02:45:41;139.33;;;57.43;;
7017;SDS011;3549;42.162;24.726;2023-12-14T02:48:06;146.10;;;57.23;;
7017;SDS011;3549;42.162;24.726;2023-12-14T02:50:32;118.50;;;47.87;;
7017;SDS011;3549;42.162;24.726;2023-12-14T02:52:58;137.87;;;51.13;;
7017;SDS011;3549;42.162;24.726;2023-12-14T02:55:23;140.73;;;55.83;;
7017;SDS011;3549;42.162;24.726;2023-12-14T02:57:49;136.40;;;54.87;;
7017;SDS011;3549;42.162;24.726;2023-12-14T03:00:14;129.53;;;51.33;;
7017;SDS011;3549;42.162;24.726;2023-12-14T03:02:40;138.27;;;55.60;;
7017;SDS011;3549;42.162;24.726;2023-12-14T03:05:05;133.57;;;54.13;;
7017;SDS011;3549;42.162;24.726;2023-12-14T03:07:31;130.43;;;52.00;;
7017;SDS011;3549;42.162;24.726;2023-12-14T03:09:56;125.13;;;51.10;;
7017;SDS011;3549;42.162;24.726;2023-12-14T03:12:22;123.80;;;50.60;;
7017;SDS011;3549;42.162;24.726;2023-12-14T03:14:47;123.70;;;49.70;;
7017;SDS011;3549;42.162;24.726;2023-12-14T03:17:12;131.47;;;51.60;;
7017;SDS011;3549;42.162;24.726;2023-12-14T03:19:39;115.47;;;44.63;;
7017;SDS011;3549;42.162;24.726;2023-12-14T03:22:05;118.97;;;47.50;;
7017;SDS011;3549;42.162;24.726;2023-12-14T03:24:31;110.87;;;46.43;;
7017;SDS011;3549;42.162;24.726;2023-12-14T03:26:57;111.93;;;45.37;;
7017;SDS011;3549;42.162;24.726;2023-12-14T03:29:22;109.17;;;45.37;;
7017;SDS011;3549;42.162;24.726;2023-12-14T03:31:47;118.77;;;44.90;;
7017;SDS011;3549;42.162;24.726;2023-12-14T03:34:13;121.23;;;47.50;;
7017;SDS011;3549;42.162;24.726;2023-12-14T03:36:38;117.23;;;48.10;;
7017;SDS011;3549;42.162;24.726;2023-12-14T03:39:04;116.63;;;46.53;;
7017;SDS011;3549;42.162;24.726;2023-12-14T03:41:29;119.03;;;48.17;;
7017;SDS011;3549;42.162;24.726;2023-12-14T03:43:55;128.97;;;50.10;;
7017;SDS011;3549;42.162;24.726;2023-12-14T03:46:20;119.50;;;47.70;;
7017;SDS011;3549;42.162;24.726;2023-12-14T03:48:45;119.10;;;48.33;;
7017;SDS011;3549;42.162;24.726;2023-12-14T03:51:11;113.60;;;47.63;;
7017;SDS011;3549;42.162;24.726;2023-12-14T03:53:37;117.87;;;49.30;;
7017;SDS011;3549;42.162;24.726;2023-12-14T03:56:02;122.97;;;48.53;;
7017;SDS011;3549;42.162;24.726;2023-12-14T03:58:28;114.27;;;48.27;;
7017;SDS011;3549;42.162;24.726;2023-12-14T04:00:53;106.90;;;45.40;;
7017;SDS011;3549;42.162;24.726;2023-12-14T04:03:19;115.23;;;47.07;;
7017;SDS011;3549;42.162;24.726;2023-12-14T04:05:44;111.93;;;47.80;;
7017;SDS011;3549;42.162;24.726;2023-12-14T04:08:10;111.03;;;42.37;;
7017;SDS011;3549;42.162;24.726;2023-12-14T04:10:35;104.47;;;46.23;;
7017;SDS011;3549;42.162;24.726;2023-12-14T04:13:01;130.27;;;53.33;;
7017;SDS011;3549;42.162;24.726;2023-12-14T04:15:26;281.33;;;102.00;;
7017;SDS011;3549;42.162;24.726;2023-12-14T04:17:52;282.67;;;101.50;;
7017;SDS011;3549;42.162;24.726;2023-12-14T04:20:17;197.70;;;72.07;;
7017;SDS011;3549;42.162;24.726;2023-12-14T04:22:43;185.17;;;69.87;;
7017;SDS011;3549;42.162;24.726;2023-12-14T04:25:09;122.43;;;48.77;;
7017;SDS011;3549;42.162;24.726;2023-12-14T04:27:35;132.63;;;54.10;;
7017;SDS011;3549;42.162;24.726;2023-12-14T04:30:00;128.60;;;52.30;;
7017;SDS011;3549;42.162;24.726;2023-12-14T04:32:26;118.40;;;48.80;;
7017;SDS011;3549;42.162;24.726;2023-12-14T04:34:51;130.27;;;52.10;;
7017;SDS011;3549;42.162;24.726;2023-12-14T04:37:17;114.00;;;47.17;;
7017;SDS011;3549;42.162;24.726;2023-12-14T04:39:42;114.50;;;46.73;;
7017;SDS011;3549;42.162;24.726;2023-12-14T04:42:08;116.33;;;46.73;;
7017;SDS011;3549;42.162;24.726;2023-12-14T04:44:33;114.90;;;46.20;;
7017;SDS011;3549;42.162;24.726;2023-12-14T04:46:59;115.47;;;47.13;;
7017;SDS011;3549;42.162;24.726;2023-12-14T04:49:24;113.13;;;47.90;;
7017;SDS011;3549;42.162;24.726;2023-12-14T04:51:49;114.37;;;45.77;;
7017;SDS011;3549;42.162;24.726;2023-12-14T04:54:15;112.13;;;45.57;;
7017;SDS011;3549;42.162;24.726;2023-12-14T04:56:40;119.13;;;49.50;;
7017;SDS011;3549;42.162;24.726;2023-12-14T04:59:06;89.87;;;37.53;;
7017;SDS011;3549;42.162;24.726;2023-12-14T05:01:32;103.20;;;41.17;;
7017;SDS011;3549;42.162;24.726;2023-12-14T05:03:57;90.93;;;40.07;;
7017;SDS011;3549;42.162;24.726;2023-12-14T05:06:23;92.07;;;36.57;;
7017;SDS011;3549;42.162;24.726;2023-12-14T05:08:48;108.23;;;45.17;;
7017;SDS011;3549;42.162;24.726;2023-12-14T05:11:14;96.23;;;42.30;;
7017;SDS011;3549;42.162;24.726;2023-12-14T05:13:39;102.57;;;45.30;;
7017;SDS011;3549;42.162;24.726;2023-12-14T05:16:05;97.97;;;40.37;;
7017;SDS011;3549;42.162;24.726;2023-12-14T05:18:32;93.47;;;39.93;;
7017;SDS011;3549;42.162;24.726;2023-12-14T05:20:57;92.33;;;38.93;;
7017;SDS011;3549;42.162;24.726;2023-12-14T05:23:24;102.43;;;43.83;;
7017;SDS011;3549;42.162;24.726;2023-12-14T05:25:50;182.53;;;70.93;;
7017;SDS011;3549;42.162;24.726;2023-12-14T05:28:15;125.10;;;51.50;;
7017;SDS011;3549;42.162;24.726;2023-12-14T05:30:41;124.43;;;49.97;;
7017;SDS011;3549;42.162;24.726;2023-12-14T05:33:06;127.33;;;53.73;;
7017;SDS011;3549;42.162;24.726;2023-12-14T05:35:32;202.07;;;93.50;;
7017;SDS011;3549;42.162;24.726;2023-12-14T05:37:57;187.63;;;86.03;;
7017;SDS011;3549;42.162;24.726;2023-12-14T05:40:23;128.10;;;53.00;;
7017;SDS011;3549;42.162;24.726;2023-12-14T05:42:48;172.73;;;72.93;;
7017;SDS011;3549;42.162;24.726;2023-12-14T05:45:14;134.83;;;55.53;;
7017;SDS011;3549;42.162;24.726;2023-12-14T05:47:40;116.83;;;47.50;;
7017;SDS011;3549;42.162;24.726;2023-12-14T05:50:06;112.47;;;46.50;;
7017;SDS011;3549;42.162;24.726;2023-12-14T05:52:34;121.70;;;51.83;;
7017;SDS011;3549;42.162;24.726;2023-12-14T05:54:59;132.73;;;55.70;;
7017;SDS011;3549;42.162;24.726;2023-12-14T05:57:25;146.63;;;62.10;;
7017;SDS011;3549;42.162;24.726;2023-12-14T05:59:50;247.63;;;100.23;;
7017;SDS011;3549;42.162;24.726;2023-12-14T06:02:16;214.13;;;80.97;;
7017;SDS011;3549;42.162;24.726;2023-12-14T06:04:41;186.80;;;80.03;;
7017;SDS011;3549;42.162;24.726;2023-12-14T06:07:07;260.17;;;99.40;;
7017;SDS011;3549;42.162;24.726;2023-12-14T06:09:32;263.80;;;106.87;;
7017;SDS011;3549;42.162;24.726;2023-12-14T06:12:01;262.37;;;109.70;;
7017;SDS011;3549;42.162;24.726;2023-12-14T06:14:27;286.33;;;124.87;;
7017;SDS011;3549;42.162;24.726;2023-12-14T06:16:53;230.47;;;99.50;;
7017;SDS011;3549;42.162;24.726;2023-12-14T06:19:18;131.83;;;52.50;;
7017;SDS011;3549;42.162;24.726;2023-12-14T06:21:44;152.87;;;59.67;;
7017;SDS011;3549;42.162;24.726;2023-12-14T06:24:10;246.80;;;95.83;;
7017;SDS011;3549;42.162;24.726;2023-12-14T06:26:40;261.57;;;99.80;;
7017;SDS011;3549;42.162;24.726;2023-12-14T06:29:06;192.00;;;75.60;;
7017;SDS011;3549;42.162;24.726;2023-12-14T06:31:32;175.33;;;69.00;;
7017;SDS011;3549;42.162;24.726;2023-12-14T06:33:57;208.33;;;91.53;;
7017;SDS011;3549;42.162;24.726;2023-12-14T06:36:25;228.43;;;88.77;;
7017;SDS011;3549;42.162;24.726;2023-12-14T06:38:54;316.20;;;110.13;;
7017;SDS011;3549;42.162;24.726;2023-12-14T06:41:22;273.67;;;103.47;;
7017;SDS011;3549;42.162;24.726;2023-12-14T06:43:49;327.47;;;115.03;;
7017;SDS011;3549;42.162;24.726;2023-12-14T06:46:15;253.27;;;100.83;;
7017;SDS011;3549;42.162;24.726;2023-12-14T06:48:40;247.93;;;104.00;;
7017;SDS011;3549;42.162;24.726;2023-12-14T06:51:06;362.90;;;134.30;;
7017;SDS011;3549;42.162;24.726;2023-12-14T06:53:32;209.57;;;78.30;;
7017;SDS011;3549;42.162;24.726;2023-12-14T06:55:57;192.73;;;80.70;;
7017;SDS011;3549;42.162;24.726;2023-12-14T06:58:23;217.53;;;89.67;;
7017;SDS011;3549;42.162;24.726;2023-12-14T07:00:48;242.83;;;103.73;;
7017;SDS011;3549;42.162;24.726;2023-12-14T07:03:13;199.10;;;82.80;;
7017;SDS011;3549;42.162;24.726;2023-12-14T07:05:39;308.20;;;129.93;;
7017;SDS011;3549;42.162;24.726;2023-12-14T07:08:06;180.37;;;69.83;;
7017;SDS011;3549;42.162;24.726;2023-12-14T07:10:31;186.67;;;80.43;;
7017;SDS011;3549;42.162;24.726;2023-12-14T07:12:57;239.37;;;101.20;;
7017;SDS011;3549;42.162;24.726;2023-12-14T07:15:23;228.87;;;94.10;;
7017;SDS011;3549;42.162;24.726;2023-12-14T07:17:49;270.27;;;101.10;;
7017;SDS011;3549;42.162;24.726;2023-12-14T07:20:15;342.40;;;128.73;;
7017;SDS011;3549;42.162;24.726;2023-12-14T07:22:40;341.83;;;136.03;;
7017;SDS011;3549;42.162;24.726;2023-12-14T07:25:06;241.97;;;104.47;;
7017;SDS011;3549;42.162;24.726;2023-12-14T07:27:36;377.13;;;129.83;;
7017;SDS011;3549;42.162;24.726;2023-12-14T07:30:01;284.13;;;116.83;;
7017;SDS011;3549;42.162;24.726;2023-12-14T07:32:26;276.57;;;110.33;;
7017;SDS011;3549;42.162;24.726;2023-12-14T07:34:52;143.90;;;60.53;;
7017;SDS011;3549;42.162;24.726;2023-12-14T07:37:18;150.57;;;63.23;;
7017;SDS011;3549;42.162;24.726;2023-12-14T07:39:43;178.67;;;77.07;;
7017;SDS011;3549;42.162;24.726;2023-12-14T07:42:08;220.93;;;92.73;;
7017;SDS011;3549;42.162;24.726;2023-12-14T07:44:34;159.73;;;72.73;;
7017;SDS011;3549;42.162;24.726;2023-12-14T07:47:01;159.33;;;72.77;;
7017;SDS011;3549;42.162;24.726;2023-12-14T07:49:27;329.50;;;140.50;;
7017;SDS011;3549;42.162;24.726;2023-12-14T07:51:52;230.53;;;102.10;;
7017;SDS011;3549;42.162;24.726;2023-12-14T07:54:18;195.63;;;88.30;;
7017;SDS011;3549;42.162;24.726;2023-12-14T07:56:43;142.50;;;66.10;;
7017;SDS011;3549;42.162;24.726;2023-12-14T07:59:09;138.70;;;60.77;;
7017;SDS011;3549;42.162;24.726;2023-12-14T08:01:35;159.57;;;72.40;;
7017;SDS011;3549;42.162;24.726;2023-12-14T08:04:01;208.17;;;90.07;;
7017;SDS011;3549;42.162;24.726;2023-12-14T08:06:26;259.17;;;88.07;;
7017;SDS011;3549;42.162;24.726;2023-12-14T08:08:52;145.27;;;64.43;;
7017;SDS011;3549;42.162;24.726;2023-12-14T08:11:17;166.47;;;75.63;;
7017;SDS011;3549;42.162;24.726;2023-12-14T08:13:43;117.17;;;55.00;;
7017;SDS011;3549;42.162;24.726;2023-12-14T08:16:08;103.13;;;46.03;;
7017;SDS011;3549;42.162;24.726;2023-12-14T08:18:36;116.87;;;52.87;;
7017;SDS011;3549;42.162;24.726;2023-12-14T08:21:01;97.93;;;45.43;;
7017;SDS011;3549;42.162;24.726;2023-12-14T08:23:27;98.77;;;46.87;;
7017;SDS011;3549;42.162;24.726;2023-12-14T08:25:53;79.43;;;38.37;;
7017;SDS011;3549;42.162;24.726;2023-12-14T08:28:22;74.10;;;36.80;;
7017;SDS011;3549;42.162;24.726;2023-12-14T08:30:48;86.73;;;41.23;;
7017;SDS011;3549;42.162;24.726;2023-12-14T08:33:14;83.97;;;40.80;;
7017;SDS011;3549;42.162;24.726;2023-12-14T08:35:39;61.83;;;31.60;;
7017;SDS011;3549;42.162;24.726;2023-12-14T08:38:05;78.93;;;37.00;;
7017;SDS011;3549;42.162;24.726;2023-12-14T08:40:30;139.77;;;59.13;;
7017;SDS011;3549;42.162;24.726;2023-12-14T08:42:56;119.27;;;54.30;;
7017;SDS011;3549;42.162;24.726;2023-12-14T08:45:22;130.07;;;61.03;;
7017;SDS011;3549;42.162;24.726;2023-12-14T08:47:47;99.47;;;49.83;;
7017;SDS011;3549;42.162;24.726;2023-12-14T08:50:13;86.77;;;42.73;;
7017;SDS011;3549;42.162;24.726;2023-12-14T08:52:38;104.97;;;45.73;;
7017;SDS011;3549;42.162;24.726;2023-12-14T08:55:04;106.33;;;49.03;;
7017;SDS011;3549;42.162;24.726;2023-12-14T08:57:30;71.50;;;34.93;;
7017;SDS011;3549;42.162;24.726;2023-12-14T08:59:56;50.23;;;27.63;;
7017;SDS011;3549;42.162;24.726;2023-12-14T09:02:21;59.00;;;29.33;;
7017;SDS011;3549;42.162;24.726;2023-12-14T09:04:47;81.70;;;37.63;;
7017;SDS011;3549;42.162;24.726;2023-12-14T09:07:12;87.27;;;40.27;;
7017;SDS011;3549;42.162;24.726;2023-12-14T09:09:38;73.13;;;36.73;;
7017;SDS011;3549;42.162;24.726;2023-12-14T09:12:03;59.07;;;29.53;;
7017;SDS011;3549;42.162;24.726;2023-12-14T09:14:29;46.33;;;24.60;;
7017;SDS011;3549;42.162;24.726;2023-12-14T09:16:54;55.30;;;30.87;;
7017;SDS011;3549;42.162;24.726;2023-12-14T09:19:20;47.60;;;26.17;;
7017;SDS011;3549;42.162;24.726;2023-12-14T09:21:45;120.17;;;51.93;;
7017;SDS011;3549;42.162;24.726;2023-12-14T09:24:11;54.47;;;28.63;;
7017;SDS011;3549;42.162;24.726;2023-12-14T09:26:36;52.60;;;27.77;;
7017;SDS011;3549;42.162;24.726;2023-12-14T09:29:02;47.47;;;25.93;;
7017;SDS011;3549;42.162;24.726;2023-12-14T09:31:27;56.97;;;28.03;;
7017;SDS011;3549;42.162;24.726;2023-12-14T09:33:53;50.13;;;24.97;;
7017;SDS011;3549;42.162;24.726;2023-12-14T09:36:18;41.87;;;22.53;;
7017;SDS011;3549;42.162;24.726;2023-12-14T09:38:44;55.27;;;30.67;;
7017;SDS011;3549;42.162;24.726;2023-12-14T09:41:10;65.50;;;35.50;;
7017;SDS011;3549;42.162;24.726;2023-12-14T09:43:37;65.30;;;32.83;;
7017;SDS011;3549;42.162;24.726;2023-12-14T09:46:02;57.17;;;29.73;;
7017;SDS011;3549;42.162;24.726;2023-12-14T09:48:29;40.80;;;22.77;;
7017;SDS011;3549;42.162;24.726;2023-12-14T09:50:56;38.83;;;21.23;;
7017;SDS011;3549;42.162;24.726;2023-12-14T09:53:21;47.10;;;25.50;;
7017;SDS011;3549;42.162;24.726;2023-12-14T09:55:47;44.23;;;25.07;;
7017;SDS011;3549;42.162;24.726;2023-12-14T09:58:12;44.50;;;25.87;;
7017;SDS011;3549;42.162;24.726;2023-12-14T10:00:38;59.83;;;28.30;;
7017;SDS011;3549;42.162;24.726;2023-12-14T10:03:18;50.80;;;27.93;;
7017;SDS011;3549;42.162;24.726;2023-12-14T10:05:48;48.17;;;27.00;;
7017;SDS011;3549;42.162;24.726;2023-12-14T10:08:14;59.13;;;29.90;;
7017;SDS011;3549;42.162;24.726;2023-12-14T10:10:41;55.43;;;26.97;;
7017;SDS011;3549;42.162;24.726;2023-12-14T10:13:07;48.10;;;23.73;;
7017;SDS011;3549;42.162;24.726;2023-12-14T10:15:42;38.67;;;22.30;;
7017;SDS011;3549;42.162;24.726;2023-12-14T10:18:12;39.30;;;21.70;;
7017;SDS011;3549;42.162;24.726;2023-12-14T10:20:44;39.87;;;22.00;;
7017;SDS011;3549;42.162;24.726;2023-12-14T10:23:12;41.00;;;20.10;;
7017;SDS011;3549;42.162;24.726;2023-12-14T10:25:38;40.83;;;22.00;;
7017;SDS011;3549;42.162;24.726;2023-12-14T10:28:03;48.40;;;27.33;;
7017;SDS011;3549;42.162;24.726;2023-12-14T10:30:29;48.30;;;26.67;;
7017;SDS011;3549;42.162;24.726;2023-12-14T10:32:55;39.93;;;23.10;;
7017;SDS011;3549;42.162;24.726;2023-12-14T10:35:21;71.70;;;34.57;;
7017;SDS011;3549;42.162;24.726;2023-12-14T10:37:48;69.83;;;34.67;;
7017;SDS011;3549;42.162;24.726;2023-12-14T10:40:15;62.03;;;31.93;;
7017;SDS011;3549;42.162;24.726;2023-12-14T10:42:42;45.03;;;24.53;;
7017;SDS011;3549;42.162;24.726;2023-12-14T10:45:12;43.47;;;23.73;;
7017;SDS011;3549;42.162;24.726;2023-12-14T10:47:44;42.60;;;22.10;;
7017;SDS011;3549;42.162;24.726;2023-12-14T10:50:11;37.93;;;21.03;;
7017;SDS011;3549;42.162;24.726;2023-12-14T10:52:40;40.27;;;24.47;;
7017;SDS011;3549;42.162;24.726;2023-12-14T10:55:07;40.17;;;22.87;;
7017;SDS011;3549;42.162;24.726;2023-12-14T10:57:36;42.97;;;24.73;;
7017;SDS011;3549;42.162;24.726;2023-12-14T11:00:02;44.40;;;25.63;;
7017;SDS011;3549;42.162;24.726;2023-12-14T11:02:40;43.80;;;26.23;;
7017;SDS011;3549;42.162;24.726;2023-12-14T11:05:11;46.53;;;24.87;;
7017;SDS011;3549;42.162;24.726;2023-12-14T11:10:12;47.00;;;26.00;;
7017;SDS011;3549;42.162;24.726;2023-12-14T11:12:37;46.50;;;25.30;;
7017;SDS011;3549;42.162;24.726;2023-12-14T11:15:05;53.07;;;26.97;;
7017;SDS011;3549;42.162;24.726;2023-12-14T11:17:31;57.13;;;31.03;;
7017;SDS011;3549;42.162;24.726;2023-12-14T11:20:19;53.40;;;28.60;;
7017;SDS011;3549;42.162;24.726;2023-12-14T11:22:54;63.73;;;33.00;;
7017;SDS011;3549;42.162;24.726;2023-12-14T11:25:20;48.43;;;27.17;;
7017;SDS011;3549;42.162;24.726;2023-12-14T11:27:49;58.20;;;29.47;;
7017;SDS011;3549;42.162;24.726;2023-12-14T11:30:15;64.77;;;35.90;;
7017;SDS011;3549;42.162;24.726;2023-12-14T11:32:41;171.93;;;85.70;;
7017;SDS011;3549;42.162;24.726;2023-12-14T11:35:07;53.23;;;28.83;;
7017;SDS011;3549;42.162;24.726;2023-12-14T11:37:35;59.50;;;33.03;;
7017;SDS011;3549;42.162;24.726;2023-12-14T11:40:01;71.07;;;37.83;;
7017;SDS011;3549;42.162;24.726;2023-12-14T11:42:30;58.60;;;30.50;;
7017;SDS011;3549;42.162;24.726;2023-12-14T11:44:56;74.80;;;39.27;;
7017;SDS011;3549;42.162;24.726;2023-12-14T11:47:22;60.93;;;34.10;;
7017;SDS011;3549;42.162;24.726;2023-12-14T11:49:47;53.43;;;29.37;;
7017;SDS011;3549;42.162;24.726;2023-12-14T11:52:13;50.77;;;27.63;;
7017;SDS011;3549;42.162;24.726;2023-12-14T11:54:38;54.33;;;28.77;;
7017;SDS011;3549;42.162;24.726;2023-12-14T11:57:04;41.90;;;22.57;;
7017;SDS011;3549;42.162;24.726;2023-12-14T11:59:34;55.57;;;26.93;;
7017;SDS011;3549;42.162;24.726;2023-12-14T12:02:01;53.30;;;27.33;;
7017;SDS011;3549;42.162;24.726;2023-12-14T12:04:26;48.43;;;24.90;;
7017;SDS011;3549;42.162;24.726;2023-12-14T12:06:59;55.40;;;26.17;;
7017;SDS011;3549;42.162;24.726;2023-12-14T12:09:33;62.30;;;34.33;;
7017;SDS011;3549;42.162;24.726;2023-12-14T12:12:16;62.97;;;32.70;;
7017;SDS011;3549;42.162;24.726;2023-12-14T12:14:42;76.60;;;36.50;;
7017;SDS011;3549;42.162;24.726;2023-12-14T12:17:08;60.73;;;31.90;;
7017;SDS011;3549;42.162;24.726;2023-12-14T12:19:34;51.13;;;25.83;;
7017;SDS011;3549;42.162;24.726;2023-12-14T12:22:00;45.57;;;22.70;;
7017;SDS011;3549;42.162;24.726;2023-12-14T12:24:26;50.23;;;24.60;;
7017;SDS011;3549;42.162;24.726;2023-12-14T12:26:51;57.00;;;29.87;;
7017;SDS011;3549;42.162;24.726;2023-12-14T12:29:17;55.07;;;25.77;;
7017;SDS011;3549;42.162;24.726;2023-12-14T12:31:43;62.60;;;33.07;;
7017;SDS011;3549;42.162;24.726;2023-12-14T12:34:10;73.17;;;36.17;;
7017;SDS011;3549;42.162;24.726;2023-12-14T12:36:36;45.53;;;22.80;;
7017;SDS011;3549;42.162;24.726;2023-12-14T12:39:01;73.07;;;38.00;;
7017;SDS011;3549;42.162;24.726;2023-12-14T12:41:28;66.23;;;35.50;;
7017;SDS011;3549;42.162;24.726;2023-12-14T12:43:53;70.53;;;38.17;;
7017;SDS011;3549;42.162;24.726;2023-12-14T12:46:19;50.03;;;28.73;;
7017;SDS011;3549;42.162;24.726;2023-12-14T12:48:44;60.43;;;31.83;;
7017;SDS011;3549;42.162;24.726;2023-12-14T12:51:12;51.50;;;27.33;;
7017;SDS011;3549;42.162;24.726;2023-12-14T12:53:37;70.07;;;34.63;;
7017;SDS011;3549;42.162;24.726;2023-12-14T12:56:03;49.33;;;25.53;;
7017;SDS011;3549;42.162;24.726;2023-12-14T12:58:29;63.50;;;32.70;;
7017;SDS011;3549;42.162;24.726;2023-12-14T13:00:54;57.90;;;30.97;;
7017;SDS011;3549;42.162;24.726;2023-12-14T13:03:20;66.47;;;33.10;;
7017;SDS011;3549;42.162;24.726;2023-12-14T13:05:46;50.03;;;25.70;;
7017;SDS011;3549;42.162;24.726;2023-12-14T13:08:12;44.30;;;25.23;;
7017;SDS011;3549;42.162;24.726;2023-12-14T13:10:38;46.33;;;24.53;;
7017;SDS011;3549;42.162;24.726;2023-12-14T13:13:04;45.00;;;23.97;;
7017;SDS011;3549;42.162;24.726;2023-12-14T13:15:29;52.27;;;26.50;;
7017;SDS011;3549;42.162;24.726;2023-12-14T13:17:56;196.47;;;46.43;;
7017;SDS011;3549;42.162;24.726;2023-12-14T13:20:22;65.33;;;28.50;;
7017;SDS011;3549;42.162;24.726;2023-12-14T13:22:48;62.60;;;28.73;;
7017;SDS011;3549;42.162;24.726;2023-12-14T13:25:14;51.90;;;26.50;;
7017;SDS011;3549;42.162;24.726;2023-12-14T13:27:39;53.23;;;29.80;;
7017;SDS011;3549;42.162;24.726;2023-12-14T13:30:06;57.00;;;30.27;;
7017;SDS011;3549;42.162;24.726;2023-12-14T13:32:32;49.23;;;25.70;;
7017;SDS011;3549;42.162;24.726;2023-12-14T13:34:57;46.03;;;24.77;;
7017;SDS011;3549;42.162;24.726;2023-12-14T13:37:23;47.80;;;26.60;;
7017;SDS011;3549;42.162;24.726;2023-12-14T13:39:48;46.00;;;25.17;;
7017;SDS011;3549;42.162;24.726;2023-12-14T13:42:15;51.57;;;27.87;;
7017;SDS011;3549;42.162;24.726;2023-12-14T13:44:41;73.40;;;31.00;;
7017;SDS011;3549;42.162;24.726;2023-12-14T13:47:06;86.90;;;37.30;;
7017;SDS011;3549;42.162;24.726;2023-12-14T13:49:32;87.83;;;39.93;;
7017;SDS011;3549;42.162;24.726;2023-12-14T13:51:58;76.97;;;36.23;;
7017;SDS011;3549;42.162;24.726;2023-12-14T13:54:23;73.10;;;33.77;;
7017;SDS011;3549;42.162;24.726;2023-12-14T13:56:49;114.90;;;40.00;;
7017;SDS011;3549;42.162;24.726;2023-12-14T13:59:14;76.13;;;32.97;;
7017;SDS011;3549;42.162;24.726;2023-12-14T14:01:40;63.67;;;30.33;;
7017;SDS011;3549;42.162;24.726;2023-12-14T14:04:05;86.10;;;35.27;;
7017;SDS011;3549;42.162;24.726;2023-12-14T14:06:30;124.83;;;45.93;;
7017;SDS011;3549;42.162;24.726;2023-12-14T14:08:56;72.20;;;32.57;;
7017;SDS011;3549;42.162;24.726;2023-12-14T14:11:21;89.03;;;39.47;;
7017;SDS011;3549;42.162;24.726;2023-12-14T14:13:47;83.83;;;40.73;;
7017;SDS011;3549;42.162;24.726;2023-12-14T14:16:13;77.50;;;38.03;;
7017;SDS011;3549;42.162;24.726;2023-12-14T14:18:39;64.03;;;33.50;;
7017;SDS011;3549;42.162;24.726;2023-12-14T14:21:04;60.00;;;31.33;;
7017;SDS011;3549;42.162;24.726;2023-12-14T14:23:33;60.17;;;30.37;;